sensor_id;sensor_type;location;lat;lon;timestamp;P1;durP1;ratioP1;P2;durP2;ratioP2
5428;SDS011;2737;52.386;9.980;2023-01-15T00:01:46;1.20;;;1.10;;
5428;SDS011;2737;52.386;9.980;2023-01-15T00:04:13;2.30;;;1.30;;
5428;SDS011;2737;52.386;9.980;2023-01-15T00:06:40;1.70;;;1.17;;
5428;SDS011;2737;52.386;9.980;2023-01-15T00:09:09;7.17;;;1.13;;
5428;SDS011;2737;52.386;9.980;2023-01-15T00:11:39;2.93;;;0.80;;
5428;SDS011;2737;52.386;9.980;2023-01-15T00:14:06;2.40;;;0.80;;
5428;SDS011;2737;52.386;9.980;2023-01-15T00:16:33;1.17;;;0.87;;
5428;SDS011;2737;52.386;9.980;2023-01-15T00:19:02;3.13;;;1.07;;
5428;SDS011;2737;52.386;9.980;2023-01-15T00:21:32;2.47;;;0.97;;
5428;SDS011;2737;52.386;9.980;2023-01-15T00:23:59;2.30;;;1.00;;
5428;SDS011;2737;52.386;9.980;2023-01-15T00:26:43;2.10;;;1.00;;
5428;SDS011;2737;52.386;9.980;2023-01-15T00:29:28;3.60;;;1.13;;
5428;SDS011;2737;52.386;9.980;2023-01-15T00:31:55;1.80;;;1.07;;
5428;SDS011;2737;52.386;9.980;2023-01-15T00:34:25;2.03;;;0.97;;
5428;SDS011;2737;52.386;9.980;2023-01-15T00:36:54;3.00;;;1.00;;
5428;SDS011;2737;52.386;9.980;2023-01-15T00:39:21;9.63;;;0.80;;
5428;SDS011;2737;52.386;9.980;2023-01-15T00:41:48;2.13;;;1.00;;
5428;SDS011;2737;52.386;9.980;2023-01-15T00:44:15;3.13;;;1.43;;
5428;SDS011;2737;52.386;9.980;2023-01-15T00:46:43;2.93;;;0.93;;
5428;SDS011;2737;52.386;9.980;2023-01-15T00:49:10;2.17;;;1.00;;
5428;SDS011;2737;52.386;9.980;2023-01-15T00:51:38;1.03;;;0.73;;
5428;SDS011;2737;52.386;9.980;2023-01-15T00:54:05;3.43;;;0.90;;
5428;SDS011;2737;52.386;9.980;2023-01-15T00:56:32;1.70;;;0.70;;
5428;SDS011;2737;52.386;9.980;2023-01-15T00:59:00;6.30;;;1.10;;
5428;SDS011;2737;52.386;9.980;2023-01-15T01:01:28;2.20;;;0.73;;
5428;SDS011;2737;52.386;9.980;2023-01-15T01:03:55;2.83;;;0.70;;
5428;SDS011;2737;52.386;9.980;2023-01-15T01:06:22;2.50;;;0.70;;
5428;SDS011;2737;52.386;9.980;2023-01-15T01:08:50;1.07;;;0.80;;
5428;SDS011;2737;52.386;9.980;2023-01-15T01:11:18;1.47;;;0.70;;
5428;SDS011;2737;52.386;9.980;2023-01-15T01:13:50;1.63;;;0.63;;
5428;SDS011;2737;52.386;9.980;2023-01-15T01:16:22;1.93;;;0.80;;
5428;SDS011;2737;52.386;9.980;2023-01-15T01:18:51;4.63;;;0.70;;
5428;SDS011;2737;52.386;9.980;2023-01-15T01:21:19;2.30;;;0.80;;
5428;SDS011;2737;52.386;9.980;2023-01-15T01:23:46;3.53;;;1.17;;
5428;SDS011;2737;52.386;9.980;2023-01-15T01:26:15;3.03;;;0.80;;
5428;SDS011;2737;52.386;9.980;2023-01-15T01:28:46;1.70;;;0.60;;
5428;SDS011;2737;52.386;9.980;2023-01-15T01:31:14;1.70;;;0.70;;
5428;SDS011;2737;52.386;9.980;2023-01-15T01:33:42;3.97;;;0.57;;
5428;SDS011;2737;52.386;9.980;2023-01-15T01:36:09;1.03;;;0.60;;
5428;SDS011;2737;52.386;9.980;2023-01-15T01:38:36;6.70;;;0.60;;
5428;SDS011;2737;52.386;9.980;2023-01-15T01:41:04;4.30;;;0.90;;
5428;SDS011;2737;52.386;9.980;2023-01-15T01:46:22;1.00;;;0.50;;
5428;SDS011;2737;52.386;9.980;2023-01-15T01:48:51;6.23;;;0.73;;
5428;SDS011;2737;52.386;9.980;2023-01-15T01:51:21;1.80;;;0.70;;
5428;SDS011;2737;52.386;9.980;2023-01-15T01:53:51;2.67;;;0.80;;
5428;SDS011;2737;52.386;9.980;2023-01-15T01:56:18;2.10;;;0.70;;
5428;SDS011;2737;52.386;9.980;2023-01-15T01:58:47;1.23;;;0.60;;
5428;SDS011;2737;52.386;9.980;2023-01-15T02:01:19;2.00;;;1.30;;
5428;SDS011;2737;52.386;9.980;2023-01-15T02:03:48;1.07;;;0.50;;
5428;SDS011;2737;52.386;9.980;2023-01-15T02:06:15;3.00;;;0.70;;
5428;SDS011;2737;52.386;9.980;2023-01-15T02:08:42;0.67;;;0.53;;
5428;SDS011;2737;52.386;9.980;2023-01-15T02:11:11;2.03;;;0.60;;
5428;SDS011;2737;52.386;9.980;2023-01-15T02:13:43;2.80;;;1.00;;
5428;SDS011;2737;52.386;9.980;2023-01-15T02:16:18;4.90;;;0.70;;
5428;SDS011;2737;52.386;9.980;2023-01-15T02:18:53;2.53;;;0.80;;
5428;SDS011;2737;52.386;9.980;2023-01-15T02:21:26;1.57;;;0.60;;
5428;SDS011;2737;52.386;9.980;2023-01-15T02:24:08;2.77;;;0.67;;
5428;SDS011;2737;52.386;9.980;2023-01-15T02:26:52;1.33;;;0.50;;
5428;SDS011;2737;52.386;9.980;2023-01-15T02:29:29;1.37;;;0.77;;
5428;SDS011;2737;52.386;9.980;2023-01-15T02:32:09;2.20;;;0.60;;
5428;SDS011;2737;52.386;9.980;2023-01-15T02:34:41;2.03;;;0.50;;
5428;SDS011;2737;52.386;9.980;2023-01-15T02:37:14;1.67;;;0.50;;
5428;SDS011;2737;52.386;9.980;2023-01-15T02:39:45;0.40;;;0.40;;
5428;SDS011;2737;52.386;9.980;2023-01-15T02:42:16;0.50;;;0.50;;
5428;SDS011;2737;52.386;9.980;2023-01-15T02:44:47;2.40;;;0.50;;
5428;SDS011;2737;52.386;9.980;2023-01-15T02:47:18;2.97;;;0.57;;
5428;SDS011;2737;52.386;9.980;2023-01-15T02:49:49;3.73;;;0.60;;
5428;SDS011;2737;52.386;9.980;2023-01-15T02:52:20;4.80;;;0.60;;
5428;SDS011;2737;52.386;9.980;2023-01-15T02:54:51;1.07;;;0.70;;
5428;SDS011;2737;52.386;9.980;2023-01-15T02:57:23;1.60;;;0.70;;
5428;SDS011;2737;52.386;9.980;2023-01-15T02:59:52;2.50;;;0.70;;
5428;SDS011;2737;52.386;9.980;2023-01-15T03:02:24;0.87;;;0.53;;
5428;SDS011;2737;52.386;9.980;2023-01-15T03:04:55;2.87;;;0.67;;
5428;SDS011;2737;52.386;9.980;2023-01-15T03:07:30;1.00;;;0.50;;
5428;SDS011;2737;52.386;9.980;2023-01-15T03:10:01;1.27;;;0.50;;
5428;SDS011;2737;52.386;9.980;2023-01-15T03:12:33;0.77;;;0.40;;
5428;SDS011;2737;52.386;9.980;2023-01-15T03:15:22;1.47;;;0.67;;
5428;SDS011;2737;52.386;9.980;2023-01-15T03:18:06;0.70;;;0.53;;
5428;SDS011;2737;52.386;9.980;2023-01-15T03:20:36;1.23;;;0.50;;
5428;SDS011;2737;52.386;9.980;2023-01-15T03:23:10;1.73;;;0.50;;
5428;SDS011;2737;52.386;9.980;2023-01-15T03:25:39;2.13;;;0.70;;
5428;SDS011;2737;52.386;9.980;2023-01-15T03:28:12;1.23;;;0.50;;
5428;SDS011;2737;52.386;9.980;2023-01-15T03:30:40;0.70;;;0.57;;
5428;SDS011;2737;52.386;9.980;2023-01-15T03:33:07;0.70;;;0.60;;
5428;SDS011;2737;52.386;9.980;2023-01-15T03:35:42;1.20;;;0.57;;
5428;SDS011;2737;52.386;9.980;2023-01-15T03:38:11;0.70;;;0.50;;
5428;SDS011;2737;52.386;9.980;2023-01-15T03:40:41;1.33;;;0.77;;
5428;SDS011;2737;52.386;9.980;2023-01-15T03:43:17;1.23;;;0.63;;
5428;SDS011;2737;52.386;9.980;2023-01-15T03:46:08;4.00;;;0.80;;
5428;SDS011;2737;52.386;9.980;2023-01-15T03:48:50;0.77;;;0.50;;
5428;SDS011;2737;52.386;9.980;2023-01-15T03:51:22;0.80;;;0.70;;
5428;SDS011;2737;52.386;9.980;2023-01-15T03:53:56;2.73;;;0.90;;
5428;SDS011;2737;52.386;9.980;2023-01-15T03:56:28;0.70;;;0.60;;
5428;SDS011;2737;52.386;9.980;2023-01-15T03:59:00;2.07;;;0.60;;
5428;SDS011;2737;52.386;9.980;2023-01-15T04:01:34;0.70;;;0.60;;
5428;SDS011;2737;52.386;9.980;2023-01-15T04:04:04;2.93;;;0.53;;
5428;SDS011;2737;52.386;9.980;2023-01-15T04:06:34;2.33;;;0.70;;
5428;SDS011;2737;52.386;9.980;2023-01-15T04:09:04;1.50;;;0.90;;
5428;SDS011;2737;52.386;9.980;2023-01-15T04:11:34;1.37;;;0.80;;
5428;SDS011;2737;52.386;9.980;2023-01-15T04:14:03;2.73;;;0.73;;
5428;SDS011;2737;52.386;9.980;2023-01-15T04:16:31;1.20;;;0.60;;
5428;SDS011;2737;52.386;9.980;2023-01-15T04:18:59;0.53;;;0.53;;
5428;SDS011;2737;52.386;9.980;2023-01-15T04:21:26;1.00;;;0.80;;
5428;SDS011;2737;52.386;9.980;2023-01-15T04:23:55;4.77;;;0.93;;
5428;SDS011;2737;52.386;9.980;2023-01-15T04:26:22;1.00;;;0.50;;
5428;SDS011;2737;52.386;9.980;2023-01-15T04:28:49;3.70;;;0.80;;
5428;SDS011;2737;52.386;9.980;2023-01-15T04:31:17;1.23;;;0.80;;
5428;SDS011;2737;52.386;9.980;2023-01-15T04:33:44;1.33;;;0.70;;
5428;SDS011;2737;52.386;9.980;2023-01-15T04:36:11;1.93;;;0.70;;
5428;SDS011;2737;52.386;9.980;2023-01-15T04:38:39;1.23;;;0.70;;
5428;SDS011;2737;52.386;9.980;2023-01-15T04:41:06;6.97;;;0.90;;
5428;SDS011;2737;52.386;9.980;2023-01-15T04:43:50;1.57;;;0.60;;
5428;SDS011;2737;52.386;9.980;2023-01-15T04:46:34;1.63;;;0.83;;
5428;SDS011;2737;52.386;9.980;2023-01-15T04:49:03;2.67;;;0.70;;
5428;SDS011;2737;52.386;9.980;2023-01-15T04:51:30;2.77;;;1.00;;
5428;SDS011;2737;52.386;9.980;2023-01-15T04:53:57;0.70;;;0.60;;
5428;SDS011;2737;52.386;9.980;2023-01-15T04:56:26;2.00;;;0.80;;
5428;SDS011;2737;52.386;9.980;2023-01-15T04:58:53;1.73;;;0.90;;
5428;SDS011;2737;52.386;9.980;2023-01-15T05:01:20;2.03;;;0.77;;
5428;SDS011;2737;52.386;9.980;2023-01-15T05:03:49;1.37;;;0.80;;
5428;SDS011;2737;52.386;9.980;2023-01-15T05:06:16;2.33;;;0.90;;
5428;SDS011;2737;52.386;9.980;2023-01-15T05:08:43;5.37;;;1.10;;
5428;SDS011;2737;52.386;9.980;2023-01-15T05:11:10;0.80;;;0.80;;
5428;SDS011;2737;52.386;9.980;2023-01-15T05:13:37;2.63;;;0.80;;
5428;SDS011;2737;52.386;9.980;2023-01-15T05:16:08;3.27;;;1.10;;
5428;SDS011;2737;52.386;9.980;2023-01-15T05:18:36;2.80;;;0.97;;
5428;SDS011;2737;52.386;9.980;2023-01-15T05:21:05;4.87;;;0.90;;
5428;SDS011;2737;52.386;9.980;2023-01-15T05:23:32;2.70;;;1.03;;
5428;SDS011;2737;52.386;9.980;2023-01-15T05:26:04;3.30;;;1.00;;
5428;SDS011;2737;52.386;9.980;2023-01-15T05:28:31;6.83;;;1.20;;
5428;SDS011;2737;52.386;9.980;2023-01-15T05:30:58;3.53;;;1.00;;
5428;SDS011;2737;52.386;9.980;2023-01-15T05:33:31;4.43;;;0.90;;
5428;SDS011;2737;52.386;9.980;2023-01-15T05:35:59;3.93;;;1.10;;
5428;SDS011;2737;52.386;9.980;2023-01-15T05:38:29;5.10;;;1.10;;
5428;SDS011;2737;52.386;9.980;2023-01-15T05:40:56;8.23;;;1.57;;
5428;SDS011;2737;52.386;9.980;2023-01-15T05:43:23;2.40;;;1.10;;
5428;SDS011;2737;52.386;9.980;2023-01-15T05:45:50;1.87;;;0.90;;
5428;SDS011;2737;52.386;9.980;2023-01-15T05:48:17;1.63;;;0.83;;
5428;SDS011;2737;52.386;9.980;2023-01-15T05:50:44;3.00;;;1.30;;
5428;SDS011;2737;52.386;9.980;2023-01-15T05:53:11;2.10;;;0.87;;
5428;SDS011;2737;52.386;9.980;2023-01-15T05:55:40;4.20;;;1.07;;
5428;SDS011;2737;52.386;9.980;2023-01-15T05:58:07;4.00;;;1.03;;
5428;SDS011;2737;52.386;9.980;2023-01-15T06:00:34;3.20;;;1.20;;
5428;SDS011;2737;52.386;9.980;2023-01-15T06:03:01;4.73;;;1.20;;
5428;SDS011;2737;52.386;9.980;2023-01-15T06:05:28;5.03;;;1.27;;
5428;SDS011;2737;52.386;9.980;2023-01-15T06:07:55;4.90;;;0.97;;
5428;SDS011;2737;52.386;9.980;2023-01-15T06:10:22;3.70;;;0.87;;
5428;SDS011;2737;52.386;9.980;2023-01-15T06:12:50;6.90;;;1.20;;
5428;SDS011;2737;52.386;9.980;2023-01-15T06:15:17;6.90;;;1.20;;
5428;SDS011;2737;52.386;9.980;2023-01-15T06:17:47;8.53;;;1.27;;
5428;SDS011;2737;52.386;9.980;2023-01-15T06:20:15;4.00;;;1.00;;
5428;SDS011;2737;52.386;9.980;2023-01-15T06:22:42;5.10;;;1.27;;
5428;SDS011;2737;52.386;9.980;2023-01-15T06:25:09;1.40;;;1.00;;
5428;SDS011;2737;52.386;9.980;2023-01-15T06:27:36;5.60;;;1.33;;
5428;SDS011;2737;52.386;9.980;2023-01-15T06:30:05;4.83;;;1.40;;
5428;SDS011;2737;52.386;9.980;2023-01-15T06:32:33;2.30;;;0.93;;
5428;SDS011;2737;52.386;9.980;2023-01-15T06:35:00;3.70;;;1.37;;
5428;SDS011;2737;52.386;9.980;2023-01-15T06:37:27;6.23;;;2.00;;
5428;SDS011;2737;52.386;9.980;2023-01-15T06:39:54;2.97;;;1.40;;
5428;SDS011;2737;52.386;9.980;2023-01-15T06:42:21;2.30;;;1.10;;
5428;SDS011;2737;52.386;9.980;2023-01-15T06:45:08;7.10;;;1.03;;
5428;SDS011;2737;52.386;9.980;2023-01-15T06:47:53;5.03;;;1.33;;
5428;SDS011;2737;52.386;9.980;2023-01-15T06:50:21;1.70;;;0.90;;
5428;SDS011;2737;52.386;9.980;2023-01-15T06:52:48;8.97;;;1.27;;
5428;SDS011;2737;52.386;9.980;2023-01-15T06:55:15;5.90;;;1.27;;
5428;SDS011;2737;52.386;9.980;2023-01-15T06:57:43;3.67;;;1.00;;
5428;SDS011;2737;52.386;9.980;2023-01-15T07:00:12;3.10;;;1.03;;
5428;SDS011;2737;52.386;9.980;2023-01-15T07:02:40;4.67;;;1.53;;
5428;SDS011;2737;52.386;9.980;2023-01-15T07:05:07;3.30;;;1.17;;
5428;SDS011;2737;52.386;9.980;2023-01-15T07:07:35;5.90;;;1.37;;
5428;SDS011;2737;52.386;9.980;2023-01-15T07:10:02;3.90;;;1.83;;
5428;SDS011;2737;52.386;9.980;2023-01-15T07:12:29;3.47;;;1.33;;
5428;SDS011;2737;52.386;9.980;2023-01-15T07:14:56;7.83;;;1.50;;
5428;SDS011;2737;52.386;9.980;2023-01-15T07:17:25;6.83;;;1.40;;
5428;SDS011;2737;52.386;9.980;2023-01-15T07:19:52;5.17;;;1.23;;
5428;SDS011;2737;52.386;9.980;2023-01-15T07:22:19;5.33;;;1.50;;
5428;SDS011;2737;52.386;9.980;2023-01-15T07:24:46;5.23;;;1.10;;
5428;SDS011;2737;52.386;9.980;2023-01-15T07:27:13;6.80;;;1.70;;
5428;SDS011;2737;52.386;9.980;2023-01-15T07:29:40;2.03;;;1.10;;
5428;SDS011;2737;52.386;9.980;2023-01-15T07:32:07;4.03;;;1.10;;
5428;SDS011;2737;52.386;9.980;2023-01-15T07:34:37;3.03;;;1.07;;
5428;SDS011;2737;52.386;9.980;2023-01-15T07:37:04;4.20;;;1.30;;
5428;SDS011;2737;52.386;9.980;2023-01-15T07:39:31;4.27;;;1.30;;
5428;SDS011;2737;52.386;9.980;2023-01-15T07:41:58;9.20;;;1.70;;
5428;SDS011;2737;52.386;9.980;2023-01-15T07:44:43;6.40;;;1.40;;
5428;SDS011;2737;52.386;9.980;2023-01-15T07:47:27;9.13;;;1.30;;
5428;SDS011;2737;52.386;9.980;2023-01-15T07:50:14;3.43;;;1.07;;
5428;SDS011;2737;52.386;9.980;2023-01-15T07:52:42;1.07;;;0.87;;
5428;SDS011;2737;52.386;9.980;2023-01-15T07:55:10;6.27;;;1.20;;
5428;SDS011;2737;52.386;9.980;2023-01-15T07:57:38;6.63;;;1.60;;
5428;SDS011;2737;52.386;9.980;2023-01-15T08:00:06;3.80;;;1.30;;
5428;SDS011;2737;52.386;9.980;2023-01-15T08:02:36;3.13;;;1.13;;
5428;SDS011;2737;52.386;9.980;2023-01-15T08:05:03;4.73;;;1.37;;
5428;SDS011;2737;52.386;9.980;2023-01-15T08:07:36;5.57;;;1.30;;
5428;SDS011;2737;52.386;9.980;2023-01-15T08:10:03;3.37;;;1.20;;
5428;SDS011;2737;52.386;9.980;2023-01-15T08:12:31;4.20;;;1.30;;
5428;SDS011;2737;52.386;9.980;2023-01-15T08:15:16;6.00;;;1.40;;
5428;SDS011;2737;52.386;9.980;2023-01-15T08:17:43;3.10;;;1.17;;
5428;SDS011;2737;52.386;9.980;2023-01-15T08:20:12;4.03;;;1.50;;
5428;SDS011;2737;52.386;9.980;2023-01-15T08:22:42;4.83;;;1.20;;
5428;SDS011;2737;52.386;9.980;2023-01-15T08:25:10;11.37;;;1.43;;
5428;SDS011;2737;52.386;9.980;2023-01-15T08:27:39;11.43;;;1.40;;
5428;SDS011;2737;52.386;9.980;2023-01-15T08:30:08;5.17;;;1.20;;
5428;SDS011;2737;52.386;9.980;2023-01-15T08:32:37;5.20;;;1.20;;
5428;SDS011;2737;52.386;9.980;2023-01-15T08:35:04;3.20;;;1.23;;
5428;SDS011;2737;52.386;9.980;2023-01-15T08:37:32;4.33;;;1.10;;
5428;SDS011;2737;52.386;9.980;2023-01-15T08:40:01;3.03;;;1.23;;
5428;SDS011;2737;52.386;9.980;2023-01-15T08:42:28;3.77;;;1.13;;
5428;SDS011;2737;52.386;9.980;2023-01-15T08:44:55;6.00;;;1.20;;
5428;SDS011;2737;52.386;9.980;2023-01-15T08:47:22;6.80;;;1.60;;
5428;SDS011;2737;52.386;9.980;2023-01-15T08:49:49;6.77;;;1.20;;
5428;SDS011;2737;52.386;9.980;2023-01-15T08:52:16;2.30;;;1.27;;
5428;SDS011;2737;52.386;9.980;2023-01-15T08:54:44;5.10;;;1.60;;
5428;SDS011;2737;52.386;9.980;2023-01-15T08:57:12;5.20;;;1.10;;
5428;SDS011;2737;52.386;9.980;2023-01-15T08:59:39;8.97;;;1.70;;
5428;SDS011;2737;52.386;9.980;2023-01-15T09:02:08;10.60;;;1.57;;
5428;SDS011;2737;52.386;9.980;2023-01-15T09:04:37;5.27;;;1.20;;
5428;SDS011;2737;52.386;9.980;2023-01-15T09:07:04;8.93;;;1.30;;
5428;SDS011;2737;52.386;9.980;2023-01-15T09:09:32;2.13;;;1.40;;
5428;SDS011;2737;52.386;9.980;2023-01-15T09:11:59;5.10;;;1.13;;
5428;SDS011;2737;52.386;9.980;2023-01-15T09:14:28;5.13;;;1.57;;
5428;SDS011;2737;52.386;9.980;2023-01-15T09:16:55;9.20;;;1.50;;
5428;SDS011;2737;52.386;9.980;2023-01-15T09:19:22;3.90;;;1.27;;
5428;SDS011;2737;52.386;9.980;2023-01-15T09:21:49;4.20;;;1.23;;
5428;SDS011;2737;52.386;9.980;2023-01-15T09:24:16;7.43;;;1.20;;
5428;SDS011;2737;52.386;9.980;2023-01-15T09:26:43;7.50;;;1.33;;
5428;SDS011;2737;52.386;9.980;2023-01-15T09:29:11;5.57;;;1.27;;
5428;SDS011;2737;52.386;9.980;2023-01-15T09:31:40;4.27;;;1.43;;
5428;SDS011;2737;52.386;9.980;2023-01-15T09:34:07;7.37;;;1.90;;
5428;SDS011;2737;52.386;9.980;2023-01-15T09:36:34;6.33;;;1.53;;
5428;SDS011;2737;52.386;9.980;2023-01-15T09:39:02;4.13;;;0.97;;
5428;SDS011;2737;52.386;9.980;2023-01-15T09:41:32;8.90;;;2.03;;
5428;SDS011;2737;52.386;9.980;2023-01-15T09:44:38;6.53;;;1.43;;
5428;SDS011;2737;52.386;9.980;2023-01-15T09:47:17;8.50;;;1.93;;
5428;SDS011;2737;52.386;9.980;2023-01-15T09:49:54;8.23;;;1.40;;
5428;SDS011;2737;52.386;9.980;2023-01-15T09:52:33;5.60;;;1.40;;
5428;SDS011;2737;52.386;9.980;2023-01-15T09:55:11;6.13;;;1.57;;
5428;SDS011;2737;52.386;9.980;2023-01-15T09:57:40;9.67;;;1.73;;
5428;SDS011;2737;52.386;9.980;2023-01-15T10:00:12;4.13;;;1.20;;
5428;SDS011;2737;52.386;9.980;2023-01-15T10:02:46;8.13;;;1.20;;
5428;SDS011;2737;52.386;9.980;2023-01-15T10:05:16;10.03;;;1.37;;
5428;SDS011;2737;52.386;9.980;2023-01-15T10:07:50;4.33;;;1.30;;
5428;SDS011;2737;52.386;9.980;2023-01-15T10:10:24;6.47;;;1.30;;
5428;SDS011;2737;52.386;9.980;2023-01-15T10:12:59;7.43;;;1.30;;
5428;SDS011;2737;52.386;9.980;2023-01-15T10:15:34;5.50;;;1.10;;
5428;SDS011;2737;52.386;9.980;2023-01-15T10:18:09;5.60;;;1.20;;
5428;SDS011;2737;52.386;9.980;2023-01-15T10:20:43;7.60;;;1.37;;
5428;SDS011;2737;52.386;9.980;2023-01-15T10:23:33;8.43;;;1.23;;
5428;SDS011;2737;52.386;9.980;2023-01-15T10:26:07;4.30;;;1.20;;
5428;SDS011;2737;52.386;9.980;2023-01-15T10:28:51;2.67;;;0.90;;
5428;SDS011;2737;52.386;9.980;2023-01-15T10:31:28;6.27;;;1.10;;
5428;SDS011;2737;52.386;9.980;2023-01-15T10:34:26;1.43;;;0.77;;
5428;SDS011;2737;52.386;9.980;2023-01-15T10:37:07;9.73;;;1.63;;
5428;SDS011;2737;52.386;9.980;2023-01-15T10:39:39;2.53;;;1.00;;
5428;SDS011;2737;52.386;9.980;2023-01-15T10:42:15;4.23;;;0.90;;
5428;SDS011;2737;52.386;9.980;2023-01-15T10:44:55;2.30;;;0.87;;
5428;SDS011;2737;52.386;9.980;2023-01-15T10:47:28;1.93;;;0.77;;
5428;SDS011;2737;52.386;9.980;2023-01-15T10:50:02;1.57;;;0.77;;
5428;SDS011;2737;52.386;9.980;2023-01-15T10:52:38;4.73;;;1.17;;
5428;SDS011;2737;52.386;9.980;2023-01-15T10:55:15;2.63;;;0.80;;
5428;SDS011;2737;52.386;9.980;2023-01-15T10:57:46;6.00;;;1.10;;
5428;SDS011;2737;52.386;9.980;2023-01-15T11:00:18;1.93;;;0.90;;
5428;SDS011;2737;52.386;9.980;2023-01-15T11:02:49;1.90;;;0.93;;
5428;SDS011;2737;52.386;9.980;2023-01-15T11:05:25;2.20;;;1.13;;
5428;SDS011;2737;52.386;9.980;2023-01-15T11:07:53;2.50;;;0.90;;
5428;SDS011;2737;52.386;9.980;2023-01-15T11:10:21;6.97;;;1.10;;
5428;SDS011;2737;52.386;9.980;2023-01-15T11:12:49;2.23;;;0.97;;
5428;SDS011;2737;52.386;9.980;2023-01-15T11:15:35;3.90;;;1.00;;
5428;SDS011;2737;52.386;9.980;2023-01-15T11:18:22;5.77;;;1.20;;
5428;SDS011;2737;52.386;9.980;2023-01-15T11:21:11;2.37;;;0.80;;
5428;SDS011;2737;52.386;9.980;2023-01-15T11:23:40;4.10;;;1.00;;
5428;SDS011;2737;52.386;9.980;2023-01-15T11:26:07;3.67;;;1.30;;
5428;SDS011;2737;52.386;9.980;2023-01-15T11:28:41;4.97;;;1.07;;
5428;SDS011;2737;52.386;9.980;2023-01-15T11:31:10;3.67;;;1.03;;
5428;SDS011;2737;52.386;9.980;2023-01-15T11:33:38;4.83;;;1.30;;
5428;SDS011;2737;52.386;9.980;2023-01-15T11:36:06;1.77;;;1.20;;
5428;SDS011;2737;52.386;9.980;2023-01-15T11:38:47;3.47;;;0.83;;
5428;SDS011;2737;52.386;9.980;2023-01-15T11:41:18;6.20;;;1.00;;
5428;SDS011;2737;52.386;9.980;2023-01-15T11:43:53;8.40;;;1.13;;
5428;SDS011;2737;52.386;9.980;2023-01-15T11:46:38;2.27;;;0.87;;
5428;SDS011;2737;52.386;9.980;2023-01-15T11:49:22;4.17;;;1.10;;
5428;SDS011;2737;52.386;9.980;2023-01-15T11:52:08;6.10;;;1.30;;
5428;SDS011;2737;52.386;9.980;2023-01-15T11:54:38;5.17;;;0.90;;
5428;SDS011;2737;52.386;9.980;2023-01-15T11:57:08;5.43;;;1.20;;
5428;SDS011;2737;52.386;9.980;2023-01-15T11:59:36;2.80;;;0.97;;
5428;SDS011;2737;52.386;9.980;2023-01-15T12:02:05;9.13;;;1.37;;
5428;SDS011;2737;52.386;9.980;2023-01-15T12:04:45;4.10;;;0.90;;
5428;SDS011;2737;52.386;9.980;2023-01-15T12:07:18;5.03;;;1.10;;
5428;SDS011;2737;52.386;9.980;2023-01-15T12:12:47;4.43;;;0.90;;
5428;SDS011;2737;52.386;9.980;2023-01-15T12:15:28;5.90;;;1.20;;
5428;SDS011;2737;52.386;9.980;2023-01-15T12:18:10;4.37;;;1.20;;
5428;SDS011;2737;52.386;9.980;2023-01-15T12:20:57;3.53;;;0.87;;
5428;SDS011;2737;52.386;9.980;2023-01-15T12:26:26;2.97;;;1.30;;
5428;SDS011;2737;52.386;9.980;2023-01-15T12:28:57;3.37;;;0.90;;
5428;SDS011;2737;52.386;9.980;2023-01-15T12:31:31;13.67;;;1.07;;
5428;SDS011;2737;52.386;9.980;2023-01-15T12:34:04;5.63;;;0.90;;
5428;SDS011;2737;52.386;9.980;2023-01-15T12:36:39;4.80;;;2.20;;
5428;SDS011;2737;52.386;9.980;2023-01-15T12:39:13;8.00;;;1.03;;
5428;SDS011;2737;52.386;9.980;2023-01-15T12:41:46;3.23;;;1.00;;
5428;SDS011;2737;52.386;9.980;2023-01-15T12:44:36;1.63;;;0.77;;
5428;SDS011;2737;52.386;9.980;2023-01-15T12:47:26;1.43;;;0.80;;
5428;SDS011;2737;52.386;9.980;2023-01-15T12:49:59;5.97;;;1.03;;
5428;SDS011;2737;52.386;9.980;2023-01-15T12:52:32;4.63;;;1.50;;
5428;SDS011;2737;52.386;9.980;2023-01-15T12:55:06;3.63;;;1.20;;
5428;SDS011;2737;52.386;9.980;2023-01-15T12:57:41;6.67;;;1.20;;
5428;SDS011;2737;52.386;9.980;2023-01-15T13:00:12;4.07;;;1.00;;
5428;SDS011;2737;52.386;9.980;2023-01-15T13:02:49;2.07;;;0.73;;
5428;SDS011;2737;52.386;9.980;2023-01-15T13:05:26;1.70;;;0.90;;
5428;SDS011;2737;52.386;9.980;2023-01-15T13:07:57;4.80;;;1.03;;
5428;SDS011;2737;52.386;9.980;2023-01-15T13:10:27;2.80;;;0.90;;
5428;SDS011;2737;52.386;9.980;2023-01-15T13:13:01;9.00;;;1.00;;
5428;SDS011;2737;52.386;9.980;2023-01-15T13:15:40;3.17;;;0.93;;
5428;SDS011;2737;52.386;9.980;2023-01-15T13:18:16;4.23;;;1.20;;
5428;SDS011;2737;52.386;9.980;2023-01-15T13:20:52;3.00;;;0.90;;
5428;SDS011;2737;52.386;9.980;2023-01-15T13:23:26;6.90;;;0.90;;
5428;SDS011;2737;52.386;9.980;2023-01-15T13:26:05;4.83;;;1.63;;
5428;SDS011;2737;52.386;9.980;2023-01-15T13:28:53;5.57;;;1.50;;
5428;SDS011;2737;52.386;9.980;2023-01-15T13:31:37;5.50;;;1.23;;
5428;SDS011;2737;52.386;9.980;2023-01-15T13:34:14;3.10;;;1.20;;
5428;SDS011;2737;52.386;9.980;2023-01-15T13:36:49;3.57;;;2.20;;
5428;SDS011;2737;52.386;9.980;2023-01-15T13:39:20;13.13;;;1.80;;
5428;SDS011;2737;52.386;9.980;2023-01-15T13:41:49;6.53;;;1.27;;
5428;SDS011;2737;52.386;9.980;2023-01-15T13:44:37;2.83;;;1.03;;
5428;SDS011;2737;52.386;9.980;2023-01-15T13:47:11;3.80;;;0.90;;
5428;SDS011;2737;52.386;9.980;2023-01-15T13:49:45;3.20;;;0.83;;
5428;SDS011;2737;52.386;9.980;2023-01-15T13:52:20;9.03;;;1.20;;
5428;SDS011;2737;52.386;9.980;2023-01-15T13:54:50;6.10;;;1.10;;
5428;SDS011;2737;52.386;9.980;2023-01-15T13:57:23;3.50;;;0.93;;
5428;SDS011;2737;52.386;9.980;2023-01-15T13:59:52;4.50;;;1.30;;
5428;SDS011;2737;52.386;9.980;2023-01-15T14:02:26;6.20;;;1.00;;
5428;SDS011;2737;52.386;9.980;2023-01-15T14:04:55;4.20;;;1.27;;
5428;SDS011;2737;52.386;9.980;2023-01-15T14:07:30;4.60;;;1.33;;
5428;SDS011;2737;52.386;9.980;2023-01-15T14:10:09;2.50;;;1.10;;
5428;SDS011;2737;52.386;9.980;2023-01-15T14:12:50;4.30;;;1.00;;
5428;SDS011;2737;52.386;9.980;2023-01-15T14:15:35;6.93;;;1.53;;
5428;SDS011;2737;52.386;9.980;2023-01-15T14:18:17;3.73;;;1.33;;
5428;SDS011;2737;52.386;9.980;2023-01-15T14:20:58;8.53;;;1.10;;
5428;SDS011;2737;52.386;9.980;2023-01-15T14:23:44;3.50;;;0.80;;
5428;SDS011;2737;52.386;9.980;2023-01-15T14:26:24;2.10;;;0.90;;
5428;SDS011;2737;52.386;9.980;2023-01-15T14:29:04;2.67;;;0.90;;
5428;SDS011;2737;52.386;9.980;2023-01-15T14:31:55;13.30;;;1.37;;
5428;SDS011;2737;52.386;9.980;2023-01-15T14:34:29;9.17;;;0.93;;
5428;SDS011;2737;52.386;9.980;2023-01-15T14:36:59;4.07;;;1.10;;
5428;SDS011;2737;52.386;9.980;2023-01-15T14:39:30;3.10;;;0.80;;
5428;SDS011;2737;52.386;9.980;2023-01-15T14:42:06;6.10;;;1.47;;
5428;SDS011;2737;52.386;9.980;2023-01-15T14:44:55;6.80;;;1.20;;
5428;SDS011;2737;52.386;9.980;2023-01-15T14:47:30;6.07;;;1.50;;
5428;SDS011;2737;52.386;9.980;2023-01-15T14:50:02;2.83;;;1.00;;
5428;SDS011;2737;52.386;9.980;2023-01-15T14:52:44;3.63;;;1.10;;
5428;SDS011;2737;52.386;9.980;2023-01-15T14:55:12;4.43;;;1.30;;
5428;SDS011;2737;52.386;9.980;2023-01-15T14:57:40;4.30;;;1.30;;
5428;SDS011;2737;52.386;9.980;2023-01-15T15:00:11;6.33;;;1.60;;
5428;SDS011;2737;52.386;9.980;2023-01-15T15:02:45;5.60;;;1.40;;
5428;SDS011;2737;52.386;9.980;2023-01-15T15:05:15;9.93;;;2.03;;
5428;SDS011;2737;52.386;9.980;2023-01-15T15:07:44;7.00;;;1.90;;
5428;SDS011;2737;52.386;9.980;2023-01-15T15:10:18;4.73;;;1.90;;
5428;SDS011;2737;52.386;9.980;2023-01-15T15:12:52;6.53;;;2.67;;
5428;SDS011;2737;52.386;9.980;2023-01-15T15:15:27;4.43;;;2.00;;
5428;SDS011;2737;52.386;9.980;2023-01-15T15:18:12;4.27;;;1.97;;
5428;SDS011;2737;52.386;9.980;2023-01-15T15:20:49;4.40;;;1.30;;
5428;SDS011;2737;52.386;9.980;2023-01-15T15:23:20;5.33;;;1.33;;
5428;SDS011;2737;52.386;9.980;2023-01-15T15:25:55;6.20;;;1.07;;
5428;SDS011;2737;52.386;9.980;2023-01-15T15:28:22;3.37;;;1.30;;
5428;SDS011;2737;52.386;9.980;2023-01-15T15:30:49;7.37;;;1.40;;
5428;SDS011;2737;52.386;9.980;2023-01-15T15:33:21;5.30;;;1.20;;
5428;SDS011;2737;52.386;9.980;2023-01-15T15:35:51;2.93;;;1.20;;
5428;SDS011;2737;52.386;9.980;2023-01-15T15:38:20;2.90;;;0.70;;
5428;SDS011;2737;52.386;9.980;2023-01-15T15:40:49;1.87;;;1.17;;
5428;SDS011;2737;52.386;9.980;2023-01-15T15:43:19;1.73;;;0.70;;
5428;SDS011;2737;52.386;9.980;2023-01-15T15:46:20;5.40;;;1.23;;
5428;SDS011;2737;52.386;9.980;2023-01-15T15:49:10;1.67;;;0.90;;
5428;SDS011;2737;52.386;9.980;2023-01-15T15:51:38;2.70;;;1.27;;
5428;SDS011;2737;52.386;9.980;2023-01-15T15:54:14;6.47;;;1.13;;